Superstar Express — 3FFX9 — position and weather

sailwx.info

Track history (hours):
 
Tides and Currents Weather Stations Pressure Air Temp Water Temp Dewpoint Dewpoint Depression Visibility Wind Speed Wind Dir Waves Ship Positions

Superstar Express

Operator: P & O Irish Sea

Last reported at 2017-Mar-30 01:20 UTC. Time now 2017-Apr-29 03:30 UTC.
Position S 28°43' E 032°28'.
Warning: this ship's position is 30 days out of date.

Length 183 m; draft 6.5 m.

Type: Cargo ship. MMSI: 351360000.

Date/timePositionNaut miles runAvg speedWind from/ knotsBaromVisibWave heightAir tempDewpointWater temp
2017-Mar-30 01:20S 28°43' E 032°28'6 8.0
2017-Mar-30 00:33S 28°47' E 032°22'8 7.8
2017-Mar-29 23:33S 28°50' E 032°14'9 9.0
2017-Mar-29 22:33S 28°48' E 032°04'1 0.9
2017-Mar-29 21:33S 28°49' E 032°03'0 0.0
2017-Mar-29 20:33S 28°49' E 032°03'0 0.0
2017-Mar-29 19:30S 28°49' E 032°03'0 0.0
2017-Mar-29 18:33S 28°49' E 032°03'0 0.0
2017-Mar-29 17:33S 28°49' E 032°03'0 0.0
2017-Mar-29 16:33S 28°49' E 032°03'0 0.0
2017-Mar-29 15:33S 28°49' E 032°03'0 0.0
2017-Mar-29 14:33S 28°49' E 032°03'0 0.0
2017-Mar-29 13:33S 28°49' E 032°03'0 0.0
2017-Mar-29 12:33S 28°49' E 032°03'0 0.0
2017-Mar-29 11:33S 28°49' E 032°03'0 0.0
2017-Mar-29 10:33S 28°49' E 032°03'0 0.0
2017-Mar-29 09:30S 28°49' E 032°03'0 0.0
2017-Mar-29 08:33S 28°49' E 032°03'0 0.0
2017-Mar-29 07:33S 28°49' E 032°03'0 0.0
2017-Mar-29 06:33S 28°49' E 032°03'0 0.0
2017-Mar-29 05:33S 28°49' E 032°03'0 0.0
2017-Mar-29 04:33S 28°49' E 032°03'0 0.0
2017-Mar-29 03:33S 28°49' E 032°03'0 0.0
2017-Mar-29 02:33S 28°49' E 032°03'0 0.0
2017-Mar-29 01:33S 28°49' E 032°03'0 0.0
2017-Mar-29 00:33S 28°49' E 032°03'0 0.0
2017-Mar-28 23:33S 28°49' E 032°03'0 0.0
2017-Mar-28 22:33S 28°49' E 032°03'0 0.0
2017-Mar-28 21:33S 28°49' E 032°03'0 0.0
2017-Mar-28 20:33S 28°49' E 032°03'0 0.0
2017-Mar-28 19:33S 28°49' E 032°03'0 0.0
2017-Mar-28 18:33S 28°49' E 032°03'0 0.0
2017-Mar-28 17:33S 28°49' E 032°03'0 0.0
2017-Mar-28 16:33S 28°49' E 032°03'0 0.0
2017-Mar-28 15:33S 28°49' E 032°03'0 0.0
2017-Mar-28 14:33S 28°49' E 032°03'0 0.0
2017-Mar-28 13:33S 28°49' E 032°03'0 0.0
2017-Mar-28 12:30S 28°49' E 032°03'0 0.0
2017-Mar-28 11:33S 28°49' E 032°03'0 0.0
2017-Mar-28 10:33S 28°49' E 032°03'0 0.0
2017-Mar-28 09:33S 28°49' E 032°03'0 0.0
2017-Mar-28 08:33S 28°49' E 032°03'0 0.0
2017-Mar-28 07:33S 28°49' E 032°03'0 0.0
2017-Mar-28 06:33S 28°49' E 032°03'0 0.0
2017-Mar-28 05:33S 28°49' E 032°03'0 0.0
2017-Mar-28 04:33S 28°49' E 032°03'0 0.0
2017-Mar-28 03:33S 28°49' E 032°03'0 0.0
2017-Mar-28 02:33S 28°49' E 032°03'0 0.0
2017-Mar-28 01:30S 28°49' E 032°03'0 0.0
2017-Mar-28 00:33S 28°49' E 032°03'0 0.0
2017-Mar-27 23:33S 28°49' E 032°03'0 0.0
2017-Mar-27 22:33S 28°49' E 032°03'0 0.0
2017-Mar-27 21:33S 28°49' E 032°03'1 1.2
2017-Mar-27 20:33S 28°48' E 032°04'6 5.6
2017-Mar-27 19:33S 28°52' E 032°09'6 6.2
2017-Mar-27 18:33S 28°58' E 032°07'0 0.1
2017-Mar-27 17:33S 28°58' E 032°07'0 0.0
2017-Mar-27 16:33S 28°58' E 032°07'0 0.1
2017-Mar-27 15:33S 28°58' E 032°07'0 0.0
2017-Mar-27 14:33S 28°58' E 032°07'0 0.0
2017-Mar-27 13:30S 28°58' E 032°07'0 0.0
2017-Mar-27 12:33S 28°58' E 032°07'0 0.0
2017-Mar-27 11:33S 28°58' E 032°07'0 0.0
2017-Mar-27 09:33S 28°58' E 032°07'0 0.0
2017-Mar-27 08:33S 28°58' E 032°07'0 0.0
2017-Mar-27 07:27S 28°58' E 032°07'0 0.0
2017-Mar-27 06:33S 28°58' E 032°07'0 0.0
2017-Mar-27 05:33S 28°58' E 032°07'0 0.0
2017-Mar-27 04:33S 28°58' E 032°07'0 0.0
2017-Mar-27 03:33S 28°58' E 032°07'0 0.0
2017-Mar-27 02:33S 28°58' E 032°07'0 0.0
2017-Mar-27 01:33S 28°58' E 032°07'0 0.0
2017-Mar-27 00:33S 28°58' E 032°07'0 0.0
2017-Mar-26 23:33S 28°58' E 032°07'0 0.0
2017-Mar-26 22:33S 28°58' E 032°07'0 0.0
2017-Mar-26 21:33S 28°58' E 032°07'0 0.0
2017-Mar-26 20:33S 28°58' E 032°07'0 0.0
2017-Mar-26 19:33S 28°58' E 032°07'0 0.0
2017-Mar-26 18:33S 28°58' E 032°07'0 0.0
2017-Mar-26 17:33S 28°58' E 032°07'0 0.0
2017-Mar-26 16:33S 28°58' E 032°07'0 0.0
2017-Mar-26 15:33S 28°58' E 032°07'0 0.0
2017-Mar-26 14:30S 28°58' E 032°07'0 0.0
2017-Mar-26 13:24S 28°58' E 032°07'0 0.0
2017-Mar-26 12:21S 28°58' E 032°07'0 0.0
2017-Mar-26 11:33S 28°58' E 032°07'0 0.0
2017-Mar-26 10:30S 28°58' E 032°07'0 0.0
2017-Mar-26 09:33S 28°58' E 032°07'0 0.1
2017-Mar-26 08:33S 28°58' E 032°07'0 0.1
2017-Mar-26 07:33S 28°58' E 032°07'0 0.1
2017-Mar-26 06:33S 28°58' E 032°07'0 0.1
2017-Mar-26 05:33S 28°58' E 032°07'0 0.0
2017-Mar-26 04:33S 28°58' E 032°07'0 0.1
2017-Mar-26 03:33S 28°58' E 032°07'0 0.0
2017-Mar-26 02:33S 28°58' E 032°07'0 0.1
2017-Mar-26 01:33S 28°58' E 032°07'0 0.1
2017-Mar-26 00:33S 28°58' E 032°07'0 0.0
2017-Mar-25 23:33S 28°58' E 032°07'0 0.0
2017-Mar-25 21:33S 28°58' E 032°07'0 0.0
2017-Mar-25 20:33S 28°58' E 032°07'0 0.0
2017-Mar-25 19:33S 28°58' E 032°07'0 0.1
2017-Mar-25 18:33S 28°58' E 032°07'0 0.0
2017-Mar-25 17:27S 28°58' E 032°07'0 0.0
2017-Mar-25 16:33S 28°58' E 032°07'0 0.0
2017-Mar-25 15:27S 28°58' E 032°07'0 0.0
2017-Mar-25 14:33S 28°58' E 032°07'0 0.0
2017-Mar-25 13:33S 28°58' E 032°07'0 0.1
2017-Mar-25 12:33S 28°58' E 032°07'0 0.1
2017-Mar-25 11:33S 28°58' E 032°07'0 0.0
2017-Mar-25 10:33S 28°58' E 032°07'0 0.0
2017-Mar-25 08:27S 28°58' E 032°07'0 0.0
2017-Mar-25 07:24S 28°58' E 032°07'0 0.0
2017-Mar-25 06:33S 28°58' E 032°07'0 0.0
2017-Mar-25 05:09S 28°58' E 032°07'0 0.1
2017-Mar-25 04:33S 28°58' E 032°07'0 0.0
2017-Mar-25 03:30S 28°58' E 032°07'0 0.0
2017-Mar-25 02:21S 28°58' E 032°07'0 0.0
2017-Mar-25 01:21S 28°58' E 032°07'0 0.1
2017-Mar-25 00:33S 28°58' E 032°07'0 0.0
2017-Mar-24 23:33S 28°58' E 032°07'0 0.1
2017-Mar-24 22:33S 28°58' E 032°07'0 0.0
2017-Mar-24 21:24S 28°58' E 032°07'0 0.1
2017-Mar-24 20:33S 28°58' E 032°07'0 0.0
2017-Mar-24 19:24S 28°58' E 032°07'0 0.0
2017-Mar-24 18:30S 28°58' E 032°07'0 0.1
2017-Mar-24 17:33S 28°58' E 032°07'0 0.0
2017-Mar-24 16:33S 28°58' E 032°07'0 0.0
2017-Mar-24 15:33S 28°58' E 032°07'0 0.0
2017-Mar-24 14:33S 28°58' E 032°07'0 0.0
2017-Mar-24 13:27S 28°58' E 032°07'0 0.0
2017-Mar-24 12:33S 28°58' E 032°07'0 0.0
2017-Mar-24 11:15S 28°58' E 032°07'0 0.0
2017-Mar-24 09:27S 28°58' E 032°07'0 0.1
2017-Mar-24 08:30S 28°58' E 032°07'0 0.1
2017-Mar-24 07:33S 28°58' E 032°07'0 0.2
2017-Mar-24 06:30S 28°58' E 032°07'0 0.1
2017-Mar-24 05:33S 28°58' E 032°07'0 0.0
2017-Mar-24 04:33S 28°58' E 032°07'0 0.0
2017-Mar-24 03:33S 28°58' E 032°07'0 0.0
2017-Mar-24 02:33S 28°58' E 032°07'0 0.0
2017-Mar-24 01:33S 28°58' E 032°07'0 0.0
2017-Mar-24 00:33S 28°58' E 032°07'0 0.0
2017-Mar-23 23:33S 28°58' E 032°07'0 0.0
2017-Mar-23 22:33S 28°58' E 032°07'0 0.0
2017-Mar-23 21:33S 28°58' E 032°07'0 0.0
2017-Mar-23 20:33S 28°58' E 032°07'0 0.0
2017-Mar-23 19:33S 28°58' E 032°07'0 0.0
2017-Mar-23 18:33S 28°58' E 032°07'0 0.0
2017-Mar-23 17:33S 28°58' E 032°07'0 0.0
2017-Mar-23 16:33S 28°58' E 032°07'0 0.0
2017-Mar-23 15:33S 28°58' E 032°07'0 0.0
2017-Mar-23 14:33S 28°58' E 032°07'0 0.0
2017-Mar-23 13:33S 28°58' E 032°07'0 0.0
2017-Mar-23 12:33S 28°58' E 032°07'0 0.0
2017-Mar-23 11:33S 28°58' E 032°07'0 0.0
2017-Mar-23 10:33S 28°58' E 032°07'0 0.0
2017-Mar-23 09:33S 28°58' E 032°07'0 0.0
2017-Mar-23 08:33S 28°58' E 032°07'0 0.0
2017-Mar-23 07:27S 28°58' E 032°07'0 0.0
2017-Mar-23 06:30S 28°58' E 032°07'0 0.0
2017-Mar-23 05:33S 28°58' E 032°07'0 0.0
2017-Mar-23 04:33S 28°58' E 032°07'0 0.1
2017-Mar-23 03:33S 28°58' E 032°07'0 0.0
2017-Mar-23 02:33S 28°58' E 032°07'0 0.0
2017-Mar-23 01:33S 28°58' E 032°07'0 0.0
2017-Mar-23 00:30S 28°58' E 032°07'0 0.0
2017-Mar-22 23:33S 28°58' E 032°07'0 0.0
2017-Mar-22 22:33S 28°58' E 032°07'0 0.0
2017-Mar-22 21:33S 28°58' E 032°07'0 0.0
2017-Mar-22 20:33S 28°58' E 032°07'0 0.0
2017-Mar-22 19:33S 28°58' E 032°07'0 0.0
2017-Mar-22 18:33S 28°58' E 032°07'0 0.0
2017-Mar-22 17:33S 28°58' E 032°07'0 0.0
2017-Mar-22 16:33S 28°58' E 032°07'0 0.0
2017-Mar-22 15:33S 28°58' E 032°07'0 0.0
2017-Mar-22 14:33S 28°58' E 032°07'0 0.1
2017-Mar-22 13:33S 28°58' E 032°07'0 0.0
2017-Mar-22 12:33S 28°58' E 032°07'0 0.0
2017-Mar-22 11:33S 28°58' E 032°07'0 0.0
2017-Mar-22 10:33S 28°58' E 032°07'0 0.0
2017-Mar-22 09:33S 28°58' E 032°07'0 0.0
2017-Mar-22 08:33S 28°58' E 032°07'0 0.0
2017-Mar-22 07:33S 28°58' E 032°07'0 0.0
2017-Mar-22 06:33S 28°58' E 032°07'0 0.0
2017-Mar-22 05:33S 28°58' E 032°07'0 0.0
2017-Mar-22 04:33S 28°58' E 032°07'0 0.0
2017-Mar-22 03:33S 28°58' E 032°07'0 0.0
2017-Mar-22 02:33S 28°58' E 032°07'0 0.0
2017-Mar-22 01:33S 28°58' E 032°07'0 0.0
2017-Mar-22 00:33S 28°58' E 032°07'0 0.0
2017-Mar-21 23:33S 28°58' E 032°07'0 0.0
2017-Mar-21 22:33S 28°58' E 032°07'0 0.0
2017-Mar-21 21:33S 28°58' E 032°07'0 0.0
2017-Mar-21 20:33S 28°58' E 032°07'0 0.0
2017-Mar-21 19:33S 28°58' E 032°07'0 0.0
2017-Mar-21 18:33S 28°58' E 032°07'0 0.0
2017-Mar-21 17:33S 28°58' E 032°07'0 0.1
2017-Mar-21 16:33S 28°58' E 032°07'0 0.0
2017-Mar-21 15:33S 28°58' E 032°07'0 0.0
2017-Mar-21 14:33S 28°58' E 032°07'0 0.0
2017-Mar-21 13:33S 28°58' E 032°07'0 0.0
2017-Mar-21 12:33S 28°58' E 032°07'0 0.0
2017-Mar-21 11:33S 28°58' E 032°07'0 0.0
2017-Mar-21 10:33S 28°58' E 032°07'0 0.0
2017-Mar-21 09:33S 28°58' E 032°07'0 0.4
2017-Mar-21 08:33S 28°58' E 032°07'7 6.6
2017-Mar-21 07:34S 28°52' E 032°11'4 3.9
2017-Mar-21 06:33S 28°50' E 032°15'1110.2
2017-Mar-21 05:30S 28°43' E 032°24'  
Track history (hours):
 
Tides and Currents Weather Stations Pressure Air Temp Water Temp Dewpoint Dewpoint Depression Visibility Wind Speed Wind Dir Waves Ship Positions

Superstar Express

Operator: P & O Irish Sea

Last reported at 2017-Mar-30 01:20 UTC. Time now 2017-Apr-29 03:30 UTC.
Position S 28°43' E 032°28'.
Warning: this ship's position is 30 days out of date.

Length 183 m; draft 6.5 m.

Type: Cargo ship. MMSI: 351360000.

Date/timePositionNaut miles runAvg speedWind from/ knotsBaromVisibWave heightAir tempDewpointWater temp
2017-Mar-30 01:20S 28°43' E 032°28'6 8.0
2017-Mar-30 00:33S 28°47' E 032°22'8 7.8
2017-Mar-29 23:33S 28°50' E 032°14'9 9.0
2017-Mar-29 22:33S 28°48' E 032°04'1 0.9
2017-Mar-29 21:33S 28°49' E 032°03'0 0.0
2017-Mar-29 20:33S 28°49' E 032°03'0 0.0
2017-Mar-29 19:30S 28°49' E 032°03'0 0.0
2017-Mar-29 18:33S 28°49' E 032°03'0 0.0
2017-Mar-29 17:33S 28°49' E 032°03'0 0.0
2017-Mar-29 16:33S 28°49' E 032°03'0 0.0
2017-Mar-29 15:33S 28°49' E 032°03'0 0.0
2017-Mar-29 14:33S 28°49' E 032°03'0 0.0
2017-Mar-29 13:33S 28°49' E 032°03'0 0.0
2017-Mar-29 12:33S 28°49' E 032°03'0 0.0
2017-Mar-29 11:33S 28°49' E 032°03'0 0.0
2017-Mar-29 10:33S 28°49' E 032°03'0 0.0
2017-Mar-29 09:30S 28°49' E 032°03'0 0.0
2017-Mar-29 08:33S 28°49' E 032°03'0 0.0
2017-Mar-29 07:33S 28°49' E 032°03'0 0.0
2017-Mar-29 06:33S 28°49' E 032°03'0 0.0
2017-Mar-29 05:33S 28°49' E 032°03'0 0.0
2017-Mar-29 04:33S 28°49' E 032°03'0 0.0
2017-Mar-29 03:33S 28°49' E 032°03'0 0.0
2017-Mar-29 02:33S 28°49' E 032°03'0 0.0
2017-Mar-29 01:33S 28°49' E 032°03'0 0.0
2017-Mar-29 00:33S 28°49' E 032°03'0 0.0
2017-Mar-28 23:33S 28°49' E 032°03'0 0.0
2017-Mar-28 22:33S 28°49' E 032°03'0 0.0
2017-Mar-28 21:33S 28°49' E 032°03'0 0.0
2017-Mar-28 20:33S 28°49' E 032°03'0 0.0
2017-Mar-28 19:33S 28°49' E 032°03'0 0.0
2017-Mar-28 18:33S 28°49' E 032°03'0 0.0
2017-Mar-28 17:33S 28°49' E 032°03'0 0.0
2017-Mar-28 16:33S 28°49' E 032°03'0 0.0
2017-Mar-28 15:33S 28°49' E 032°03'0 0.0
2017-Mar-28 14:33S 28°49' E 032°03'0 0.0
2017-Mar-28 13:33S 28°49' E 032°03'0 0.0
2017-Mar-28 12:30S 28°49' E 032°03'0 0.0
2017-Mar-28 11:33S 28°49' E 032°03'0 0.0
2017-Mar-28 10:33S 28°49' E 032°03'0 0.0
2017-Mar-28 09:33S 28°49' E 032°03'0 0.0
2017-Mar-28 08:33S 28°49' E 032°03'0 0.0
2017-Mar-28 07:33S 28°49' E 032°03'0 0.0
2017-Mar-28 06:33S 28°49' E 032°03'0 0.0
2017-Mar-28 05:33S 28°49' E 032°03'0 0.0
2017-Mar-28 04:33S 28°49' E 032°03'0 0.0
2017-Mar-28 03:33S 28°49' E 032°03'0 0.0
2017-Mar-28 02:33S 28°49' E 032°03'0 0.0
2017-Mar-28 01:30S 28°49' E 032°03'0 0.0
2017-Mar-28 00:33S 28°49' E 032°03'0 0.0
2017-Mar-27 23:33S 28°49' E 032°03'0 0.0
2017-Mar-27 22:33S 28°49' E 032°03'0 0.0
2017-Mar-27 21:33S 28°49' E 032°03'1 1.2
2017-Mar-27 20:33S 28°48' E 032°04'6 5.6
2017-Mar-27 19:33S 28°52' E 032°09'6 6.2
2017-Mar-27 18:33S 28°58' E 032°07'0 0.1
2017-Mar-27 17:33S 28°58' E 032°07'0 0.0
2017-Mar-27 16:33S 28°58' E 032°07'0 0.1
2017-Mar-27 15:33S 28°58' E 032°07'0 0.0
2017-Mar-27 14:33S 28°58' E 032°07'0 0.0
2017-Mar-27 13:30S 28°58' E 032°07'0 0.0
2017-Mar-27 12:33S 28°58' E 032°07'0 0.0
2017-Mar-27 11:33S 28°58' E 032°07'0 0.0
2017-Mar-27 09:33S 28°58' E 032°07'0 0.0
2017-Mar-27 08:33S 28°58' E 032°07'0 0.0
2017-Mar-27 07:27S 28°58' E 032°07'0 0.0
2017-Mar-27 06:33S 28°58' E 032°07'0 0.0
2017-Mar-27 05:33S 28°58' E 032°07'0 0.0
2017-Mar-27 04:33S 28°58' E 032°07'0 0.0
2017-Mar-27 03:33S 28°58' E 032°07'0 0.0
2017-Mar-27 02:33S 28°58' E 032°07'0 0.0
2017-Mar-27 01:33S 28°58' E 032°07'0 0.0
2017-Mar-27 00:33S 28°58' E 032°07'0 0.0
2017-Mar-26 23:33S 28°58' E 032°07'0 0.0
2017-Mar-26 22:33S 28°58' E 032°07'0 0.0
2017-Mar-26 21:33S 28°58' E 032°07'0 0.0
2017-Mar-26 20:33S 28°58' E 032°07'0 0.0
2017-Mar-26 19:33S 28°58' E 032°07'0 0.0
2017-Mar-26 18:33S 28°58' E 032°07'0 0.0
2017-Mar-26 17:33S 28°58' E 032°07'0 0.0
2017-Mar-26 16:33S 28°58' E 032°07'0 0.0
2017-Mar-26 15:33S 28°58' E 032°07'0 0.0
2017-Mar-26 14:30S 28°58' E 032°07'0 0.0
2017-Mar-26 13:24S 28°58' E 032°07'0 0.0
2017-Mar-26 12:21S 28°58' E 032°07'0 0.0
2017-Mar-26 11:33S 28°58' E 032°07'0 0.0
2017-Mar-26 10:30S 28°58' E 032°07'0 0.0
2017-Mar-26 09:33S 28°58' E 032°07'0 0.1
2017-Mar-26 08:33S 28°58' E 032°07'0 0.1
2017-Mar-26 07:33S 28°58' E 032°07'0 0.1
2017-Mar-26 06:33S 28°58' E 032°07'0 0.1
2017-Mar-26 05:33S 28°58' E 032°07'0 0.0
2017-Mar-26 04:33S 28°58' E 032°07'0 0.1
2017-Mar-26 03:33S 28°58' E 032°07'0 0.0
2017-Mar-26 02:33S 28°58' E 032°07'0 0.1
2017-Mar-26 01:33S 28°58' E 032°07'0 0.1
2017-Mar-26 00:33S 28°58' E 032°07'0 0.0
2017-Mar-25 23:33S 28°58' E 032°07'0 0.0
2017-Mar-25 21:33S 28°58' E 032°07'0 0.0
2017-Mar-25 20:33S 28°58' E 032°07'0 0.0
2017-Mar-25 19:33S 28°58' E 032°07'0 0.1
2017-Mar-25 18:33S 28°58' E 032°07'0 0.0
2017-Mar-25 17:27S 28°58' E 032°07'0 0.0
2017-Mar-25 16:33S 28°58' E 032°07'0 0.0
2017-Mar-25 15:27S 28°58' E 032°07'0 0.0
2017-Mar-25 14:33S 28°58' E 032°07'0 0.0
2017-Mar-25 13:33S 28°58' E 032°07'0 0.1
2017-Mar-25 12:33S 28°58' E 032°07'0 0.1
2017-Mar-25 11:33S 28°58' E 032°07'0 0.0
2017-Mar-25 10:33S 28°58' E 032°07'0 0.0
2017-Mar-25 08:27S 28°58' E 032°07'0 0.0
2017-Mar-25 07:24S 28°58' E 032°07'0 0.0
2017-Mar-25 06:33S 28°58' E 032°07'0 0.0
2017-Mar-25 05:09S 28°58' E 032°07'0 0.1
2017-Mar-25 04:33S 28°58' E 032°07'0 0.0
2017-Mar-25 03:30S 28°58' E 032°07'0 0.0
2017-Mar-25 02:21S 28°58' E 032°07'0 0.0
2017-Mar-25 01:21S 28°58' E 032°07'0 0.1
2017-Mar-25 00:33S 28°58' E 032°07'0 0.0
2017-Mar-24 23:33S 28°58' E 032°07'0 0.1
2017-Mar-24 22:33S 28°58' E 032°07'0 0.0
2017-Mar-24 21:24S 28°58' E 032°07'0 0.1
2017-Mar-24 20:33S 28°58' E 032°07'0 0.0
2017-Mar-24 19:24S 28°58' E 032°07'0 0.0
2017-Mar-24 18:30S 28°58' E 032°07'0 0.1
2017-Mar-24 17:33S 28°58' E 032°07'0 0.0
2017-Mar-24 16:33S 28°58' E 032°07'0 0.0
2017-Mar-24 15:33S 28°58' E 032°07'0 0.0
2017-Mar-24 14:33S 28°58' E 032°07'0 0.0
2017-Mar-24 13:27S 28°58' E 032°07'0 0.0
2017-Mar-24 12:33S 28°58' E 032°07'0 0.0
2017-Mar-24 11:15S 28°58' E 032°07'0 0.0
2017-Mar-24 09:27S 28°58' E 032°07'0 0.1
2017-Mar-24 08:30S 28°58' E 032°07'0 0.1
2017-Mar-24 07:33S 28°58' E 032°07'0 0.2
2017-Mar-24 06:30S 28°58' E 032°07'0 0.1
2017-Mar-24 05:33S 28°58' E 032°07'0 0.0
2017-Mar-24 04:33S 28°58' E 032°07'0 0.0
2017-Mar-24 03:33S 28°58' E 032°07'0 0.0
2017-Mar-24 02:33S 28°58' E 032°07'0 0.0
2017-Mar-24 01:33S 28°58' E 032°07'0 0.0
2017-Mar-24 00:33S 28°58' E 032°07'0 0.0
2017-Mar-23 23:33S 28°58' E 032°07'0 0.0
2017-Mar-23 22:33S 28°58' E 032°07'0 0.0
2017-Mar-23 21:33S 28°58' E 032°07'0 0.0
2017-Mar-23 20:33S 28°58' E 032°07'0 0.0
2017-Mar-23 19:33S 28°58' E 032°07'0 0.0
2017-Mar-23 18:33S 28°58' E 032°07'0 0.0
2017-Mar-23 17:33S 28°58' E 032°07'0 0.0
2017-Mar-23 16:33S 28°58' E 032°07'0 0.0
2017-Mar-23 15:33S 28°58' E 032°07'0 0.0
2017-Mar-23 14:33S 28°58' E 032°07'0 0.0
2017-Mar-23 13:33S 28°58' E 032°07'0 0.0
2017-Mar-23 12:33S 28°58' E 032°07'0 0.0
2017-Mar-23 11:33S 28°58' E 032°07'0 0.0
2017-Mar-23 10:33S 28°58' E 032°07'0 0.0
2017-Mar-23 09:33S 28°58' E 032°07'0 0.0
2017-Mar-23 08:33S 28°58' E 032°07'0 0.0
2017-Mar-23 07:27S 28°58' E 032°07'0 0.0
2017-Mar-23 06:30S 28°58' E 032°07'0 0.0
2017-Mar-23 05:33S 28°58' E 032°07'0 0.0
2017-Mar-23 04:33S 28°58' E 032°07'0 0.1
2017-Mar-23 03:33S 28°58' E 032°07'0 0.0
2017-Mar-23 02:33S 28°58' E 032°07'0 0.0
2017-Mar-23 01:33S 28°58' E 032°07'0 0.0
2017-Mar-23 00:30S 28°58' E 032°07'0 0.0
2017-Mar-22 23:33S 28°58' E 032°07'0 0.0
2017-Mar-22 22:33S 28°58' E 032°07'0 0.0
2017-Mar-22 21:33S 28°58' E 032°07'0 0.0
2017-Mar-22 20:33S 28°58' E 032°07'0 0.0
2017-Mar-22 19:33S 28°58' E 032°07'0 0.0
2017-Mar-22 18:33S 28°58' E 032°07'0 0.0
2017-Mar-22 17:33S 28°58' E 032°07'0 0.0
2017-Mar-22 16:33S 28°58' E 032°07'0 0.0
2017-Mar-22 15:33S 28°58' E 032°07'0 0.0
2017-Mar-22 14:33S 28°58' E 032°07'0 0.1
2017-Mar-22 13:33S 28°58' E 032°07'0 0.0
2017-Mar-22 12:33S 28°58' E 032°07'0 0.0
2017-Mar-22 11:33S 28°58' E 032°07'0 0.0
2017-Mar-22 10:33S 28°58' E 032°07'0 0.0
2017-Mar-22 09:33S 28°58' E 032°07'0 0.0
2017-Mar-22 08:33S 28°58' E 032°07'0 0.0
2017-Mar-22 07:33S 28°58' E 032°07'0 0.0
2017-Mar-22 06:33S 28°58' E 032°07'0 0.0
2017-Mar-22 05:33S 28°58' E 032°07'0 0.0
2017-Mar-22 04:33S 28°58' E 032°07'0 0.0
2017-Mar-22 03:33S 28°58' E 032°07'0 0.0
2017-Mar-22 02:33S 28°58' E 032°07'0 0.0
2017-Mar-22 01:33S 28°58' E 032°07'0 0.0
2017-Mar-22 00:33S 28°58' E 032°07'0 0.0
2017-Mar-21 23:33S 28°58' E 032°07'0 0.0
2017-Mar-21 22:33S 28°58' E 032°07'0 0.0
2017-Mar-21 21:33S 28°58' E 032°07'0 0.0
2017-Mar-21 20:33S 28°58' E 032°07'0 0.0
2017-Mar-21 19:33S 28°58' E 032°07'0 0.0
2017-Mar-21 18:33S 28°58' E 032°07'0 0.0
2017-Mar-21 17:33S 28°58' E 032°07'0 0.1
2017-Mar-21 16:33S 28°58' E 032°07'0 0.0
2017-Mar-21 15:33S 28°58' E 032°07'0 0.0
2017-Mar-21 14:33S 28°58' E 032°07'0 0.0
2017-Mar-21 13:33S 28°58' E 032°07'0 0.0
2017-Mar-21 12:33S 28°58' E 032°07'0 0.0
2017-Mar-21 11:33S 28°58' E 032°07'0 0.0
2017-Mar-21 10:33S 28°58' E 032°07'0 0.0
2017-Mar-21 09:33S 28°58' E 032°07'0 0.4
2017-Mar-21 08:33S 28°58' E 032°07'7 6.6
2017-Mar-21 07:34S 28°52' E 032°11'4 3.9
2017-Mar-21 06:33S 28°50' E 032°15'1110.2
2017-Mar-21 05:30S 28°43' E 032°24'  

Dump ship's entire track history